createdAt,value
2023-05-21T00:00:13.188Z,99.90
2023-05-21T00:02:43.341Z,99.90
2023-05-21T00:05:14.817Z,99.90
2023-05-21T00:07:44.131Z,99.90
2023-05-21T00:10:14.109Z,99.90
2023-05-21T00:12:42.649Z,99.90
2023-05-21T00:15:11.947Z,99.90
2023-05-21T00:17:40.944Z,99.90
2023-05-21T00:20:10.093Z,99.90
2023-05-21T00:22:38.510Z,99.90
2023-05-21T00:25:07.857Z,99.90
2023-05-21T00:27:40.450Z,99.90
2023-05-21T00:30:09.756Z,99.90
2023-05-21T00:32:38.119Z,99.90
2023-05-21T00:35:07.767Z,99.90
2023-05-21T00:37:36.078Z,99.90
2023-05-21T00:40:07.979Z,99.90
2023-05-21T00:42:39.791Z,99.90
2023-05-21T00:45:11.121Z,99.90
2023-05-21T00:47:39.733Z,99.90
2023-05-21T00:50:09.628Z,99.90
2023-05-21T00:52:42.251Z,99.90
2023-05-21T00:55:12.027Z,99.90
2023-05-21T00:57:41.300Z,99.90
2023-05-21T01:00:29.942Z,99.90
2023-05-21T01:02:58.621Z,99.90
2023-05-21T01:05:29.184Z,99.90
2023-05-21T01:07:58.588Z,99.90
2023-05-21T01:10:28.563Z,99.90
2023-05-21T01:12:59.015Z,99.90
2023-05-21T01:15:27.655Z,99.90
2023-05-21T01:17:57.978Z,99.90
2023-05-21T01:20:26.399Z,99.90
2023-05-21T01:22:57.425Z,99.90
2023-05-21T01:25:26.423Z,99.90
2023-05-21T01:27:55.046Z,99.90
2023-05-21T01:30:25.281Z,99.90
2023-05-21T01:33:01.458Z,99.90
2023-05-21T01:35:34.656Z,99.90
2023-05-21T01:38:13.675Z,99.90
2023-05-21T01:40:48.150Z,99.90
2023-05-21T01:43:17.465Z,99.90
2023-05-21T01:45:47.362Z,99.90
2023-05-21T01:48:18.467Z,99.90
2023-05-21T01:50:47.361Z,99.90
2023-05-21T01:53:17.392Z,99.90
2023-05-21T01:55:46.080Z,99.90
2023-05-21T01:58:15.847Z,99.90
2023-05-21T02:00:45.440Z,99.90
2023-05-21T02:03:15.037Z,99.90
2023-05-21T02:05:43.666Z,99.90
2023-05-21T02:08:12.897Z,99.90
2023-05-21T02:10:42.956Z,99.90
2023-05-21T02:13:12.499Z,99.90
2023-05-21T02:15:41.686Z,99.90
2023-05-21T02:18:10.459Z,99.90
2023-05-21T02:20:58.679Z,99.90
2023-05-21T02:23:27.269Z,99.90
2023-05-21T02:25:56.958Z,99.90
2023-05-21T02:28:25.745Z,99.90
2023-05-21T02:30:54.234Z,99.90
2023-05-21T02:33:23.234Z,99.90
2023-05-21T02:35:51.543Z,99.90
2023-05-21T02:38:23.322Z,99.90
2023-05-21T02:40:52.270Z,99.90
2023-05-21T02:43:22.364Z,99.90
2023-05-21T02:45:51.471Z,99.90
2023-05-21T02:48:20.957Z,99.90
2023-05-21T02:50:49.306Z,99.90
2023-05-21T02:53:18.153Z,99.90
2023-05-21T02:55:46.469Z,99.90
2023-05-21T02:58:15.980Z,99.90
2023-05-21T03:00:45.814Z,99.90
2023-05-21T03:03:14.753Z,99.90
2023-05-21T03:05:43.628Z,99.90
2023-05-21T03:08:13.443Z,99.90
2023-05-21T03:10:41.738Z,99.90
2023-05-21T03:13:10.607Z,99.90
2023-05-21T03:15:39.791Z,99.90
2023-05-21T03:18:10.373Z,99.90
2023-05-21T03:20:43.602Z,99.90
2023-05-21T03:23:15.544Z,99.90
2023-05-21T03:25:46.887Z,99.90
2023-05-21T03:28:17.702Z,99.90
2023-05-21T03:30:51.039Z,99.90
2023-05-21T03:33:39.847Z,99.90
2023-05-21T03:36:22.443Z,99.90
2023-05-21T03:38:50.924Z,99.90
2023-05-21T03:41:20.071Z,99.90
2023-05-21T03:43:52.854Z,99.90
2023-05-21T03:46:23.941Z,99.90
2023-05-21T03:49:10.146Z,99.90
2023-05-21T03:51:40.364Z,99.90
2023-05-21T03:54:12.092Z,99.90
2023-05-21T03:56:41.293Z,99.90
2023-05-21T03:59:10.383Z,99.90
2023-05-21T04:01:39.325Z,99.90
2023-05-21T04:04:11.919Z,99.90
2023-05-21T04:06:42.640Z,99.90
2023-05-21T04:09:12.006Z,99.90
2023-05-21T04:11:40.736Z,99.90
2023-05-21T04:14:09.447Z,99.90
2023-05-21T04:16:38.629Z,99.90
2023-05-21T04:19:07.822Z,99.90
2023-05-21T04:21:37.538Z,99.90
2023-05-21T04:24:07.201Z,99.90
2023-05-21T04:26:48.101Z,99.90
2023-05-21T04:29:18.253Z,99.90
2023-05-21T04:31:46.810Z,99.90
2023-05-21T04:34:18.168Z,99.90
2023-05-21T04:36:47.904Z,99.90
2023-05-21T04:39:17.107Z,99.90
2023-05-21T04:41:45.385Z,99.90
2023-05-21T04:44:31.866Z,99.90
2023-05-21T04:47:02.205Z,99.90
2023-05-21T04:49:31.045Z,99.90
2023-05-21T04:52:00.839Z,99.90
2023-05-21T04:54:29.616Z,99.90
2023-05-21T04:56:58.228Z,99.90
2023-05-21T04:59:26.604Z,99.90
2023-05-21T05:01:55.471Z,99.90
2023-05-21T05:04:23.745Z,99.90
2023-05-21T05:06:53.135Z,99.90
2023-05-21T05:09:25.127Z,99.90
2023-05-21T05:11:54.776Z,99.90
2023-05-21T05:14:23.097Z,99.90
2023-05-21T05:16:52.178Z,99.90
2023-05-21T05:19:21.442Z,99.90
2023-05-21T05:21:50.084Z,99.90
2023-05-21T05:24:18.800Z,99.90
2023-05-21T05:26:49.406Z,99.90
2023-05-21T05:29:17.838Z,99.90
2023-05-21T05:31:46.426Z,99.90
2023-05-21T05:34:17.313Z,99.90
2023-05-21T05:36:45.919Z,99.90
2023-05-21T05:39:14.622Z,99.90
2023-05-21T05:41:42.958Z,99.90
2023-05-21T05:44:13.147Z,99.90
2023-05-21T05:46:41.519Z,99.90
2023-05-21T05:49:11.078Z,99.90
2023-05-21T05:51:42.016Z,99.90
2023-05-21T05:54:11.199Z,99.90
2023-05-21T05:56:39.771Z,99.90
2023-05-21T05:59:08.178Z,99.90
2023-05-21T06:01:42.704Z,99.90
2023-05-21T06:04:11.488Z,99.90
2023-05-21T06:06:40.519Z,99.90
2023-05-21T06:09:12.011Z,99.90
2023-05-21T06:11:40.843Z,99.90
2023-05-21T06:14:09.167Z,99.90
2023-05-21T06:16:39.158Z,99.90
2023-05-21T06:19:09.068Z,99.90
2023-05-21T06:21:37.847Z,99.90
2023-05-21T06:24:07.708Z,99.90
2023-05-21T06:26:36.636Z,99.90
2023-05-21T06:29:05.604Z,99.90
2023-05-21T06:31:34.013Z,99.90
2023-05-21T06:34:02.714Z,99.90
2023-05-21T06:36:32.855Z,99.90
2023-05-21T06:39:01.459Z,99.90
2023-05-21T06:41:30.204Z,99.90
2023-05-21T06:44:03.429Z,99.90
2023-05-21T06:46:50.116Z,99.90
2023-05-21T06:49:20.801Z,99.90
2023-05-21T06:51:51.049Z,99.90
2023-05-21T06:54:19.916Z,99.90
2023-05-21T06:56:48.800Z,99.90
2023-05-21T06:59:17.719Z,99.90
2023-05-21T07:01:46.572Z,99.90
2023-05-21T07:04:15.295Z,99.90
2023-05-21T07:06:45.404Z,99.90
2023-05-21T07:09:15.837Z,99.90
2023-05-21T07:11:44.436Z,99.90
2023-05-21T07:14:14.379Z,99.90
2023-05-21T07:16:42.994Z,99.90
2023-05-21T07:19:11.383Z,99.90
2023-05-21T07:21:41.406Z,99.90
2023-05-21T07:24:09.753Z,99.90
2023-05-21T07:26:42.546Z,99.90
2023-05-21T07:29:12.347Z,99.90
2023-05-21T07:31:41.014Z,99.90
2023-05-21T07:34:09.361Z,99.90
2023-05-21T07:36:38.017Z,99.90
2023-05-21T07:39:06.485Z,99.90
2023-05-21T07:41:35.415Z,99.90
2023-05-21T07:44:09.239Z,99.90
2023-05-21T07:46:42.857Z,98.30
2023-05-21T07:49:17.190Z,98.40
2023-05-21T07:51:49.803Z,95.80
2023-05-21T07:54:19.570Z,96.80
2023-05-21T07:56:48.586Z,95.30
2023-05-21T07:59:35.174Z,95.50
2023-05-21T08:02:04.127Z,95.20
2023-05-21T08:04:32.547Z,94.10
2023-05-21T08:07:04.183Z,93.40
2023-05-21T08:09:33.216Z,95.80
2023-05-21T08:12:01.800Z,92.20
2023-05-21T08:14:31.926Z,92.70
2023-05-21T08:17:01.732Z,92.00
2023-05-21T08:19:31.546Z,90.20
2023-05-21T08:22:06.855Z,91.00
2023-05-21T08:24:37.277Z,89.60
2023-05-21T08:27:06.477Z,90.10
2023-05-21T08:29:36.455Z,89.60
2023-05-21T08:32:10.054Z,90.00
2023-05-21T08:34:39.452Z,88.70
2023-05-21T08:37:41.561Z,93.70
2023-05-21T08:40:20.875Z,90.30
2023-05-21T08:42:53.103Z,90.30
2023-05-21T08:45:29.915Z,90.70
2023-05-21T08:48:00.567Z,93.10
2023-05-21T08:50:33.958Z,92.70
2023-05-21T08:53:15.955Z,92.50
2023-05-21T08:55:56.657Z,93.10
2023-05-21T08:58:29.078Z,92.60
2023-05-21T09:00:58.765Z,92.90
2023-05-21T09:03:31.883Z,93.40
2023-05-21T09:06:01.280Z,93.80
2023-05-21T09:08:36.467Z,93.80
2023-05-21T09:11:13.561Z,94.00
2023-05-21T09:13:50.190Z,94.20
2023-05-21T09:16:26.191Z,93.90
2023-05-21T09:18:56.264Z,94.90
2023-05-21T09:21:30.030Z,95.40
2023-05-21T09:24:10.582Z,95.80
2023-05-21T09:26:44.509Z,96.00
2023-05-21T09:29:14.754Z,95.70
2023-05-21T09:31:45.259Z,96.00
2023-05-21T09:34:16.407Z,97.30
2023-05-21T09:36:48.758Z,96.20
2023-05-21T09:39:28.618Z,95.70
2023-05-21T09:41:58.982Z,96.10
2023-05-21T09:44:55.208Z,96.20
2023-05-21T09:47:24.153Z,94.80
2023-05-21T09:49:53.937Z,94.90
2023-05-21T09:52:26.351Z,94.80
2023-05-21T09:54:54.713Z,93.00
2023-05-21T09:57:27.579Z,93.30
2023-05-21T09:59:56.131Z,92.90
2023-05-21T10:02:26.835Z,90.70
2023-05-21T10:04:57.876Z,91.10
2023-05-21T10:07:27.803Z,91.20
2023-05-21T10:09:58.479Z,91.00
2023-05-21T10:12:31.314Z,90.40
2023-05-21T10:15:03.347Z,90.70
2023-05-21T10:17:32.889Z,89.10
2023-05-21T10:20:05.445Z,87.90
2023-05-21T10:22:34.462Z,88.70
2023-05-21T10:25:05.749Z,85.50
2023-05-21T10:27:35.800Z,85.30
2023-05-21T10:30:06.821Z,84.90
2023-05-21T10:32:35.392Z,84.80
2023-05-21T10:35:06.686Z,84.70
2023-05-21T10:37:35.042Z,83.20
2023-05-21T10:40:04.256Z,84.50
2023-05-21T10:43:07.314Z,86.60
2023-05-21T10:46:02.021Z,87.00
2023-05-21T10:48:52.895Z,88.00
2023-05-21T10:51:27.091Z,83.20
2023-05-21T10:54:16.202Z,83.30
2023-05-21T10:56:54.753Z,81.20
2023-05-21T10:59:36.232Z,80.20
2023-05-21T11:02:06.442Z,78.70
2023-05-21T11:04:39.858Z,72.60
2023-05-21T11:07:09.964Z,70.60
2023-05-21T11:09:39.382Z,70.10
2023-05-21T11:12:09.869Z,68.30
2023-05-21T11:14:40.255Z,61.20
2023-05-21T11:17:13.478Z,62.50
2023-05-21T11:19:43.355Z,64.20
2023-05-21T11:22:23.920Z,64.40
2023-05-21T11:24:56.904Z,66.40
2023-05-21T11:27:37.799Z,61.90
2023-05-21T11:30:08.468Z,60.70
2023-05-21T11:32:41.014Z,60.90
2023-05-21T11:35:09.903Z,59.80
2023-05-21T11:37:41.640Z,64.70
2023-05-21T11:40:30.915Z,59.70
2023-05-21T11:42:59.229Z,58.60
2023-05-21T11:45:31.839Z,57.40
2023-05-21T11:48:01.218Z,56.90
2023-05-21T11:50:33.691Z,56.60
2023-05-21T11:53:04.197Z,55.40
2023-05-21T11:55:33.178Z,56.70
2023-05-21T11:58:02.574Z,55.30
2023-05-21T12:00:31.470Z,54.30
2023-05-21T12:03:00.997Z,55.60
2023-05-21T12:05:30.465Z,54.80
2023-05-21T12:07:59.607Z,56.00
2023-05-21T12:10:29.563Z,57.40
2023-05-21T12:12:57.904Z,57.40
2023-05-21T12:15:30.098Z,59.90
2023-05-21T12:17:58.729Z,56.60
2023-05-21T12:20:29.251Z,57.10
2023-05-21T12:22:59.171Z,57.40
2023-05-21T12:25:30.035Z,59.20
2023-05-21T12:28:01.411Z,57.80
2023-05-21T12:30:30.799Z,58.40
2023-05-21T12:33:02.098Z,58.20
2023-05-21T12:35:32.095Z,58.60
2023-05-21T12:38:02.213Z,59.50
2023-05-21T12:40:39.211Z,57.50
2023-05-21T12:43:08.932Z,56.40
2023-05-21T12:45:39.999Z,56.10
2023-05-21T12:48:08.883Z,56.40
2023-05-21T12:50:40.650Z,57.70
2023-05-21T12:53:10.777Z,57.20
2023-05-21T12:55:41.366Z,56.20
2023-05-21T12:58:09.779Z,56.20
2023-05-21T13:00:38.630Z,54.80
2023-05-21T13:03:07.708Z,52.00
2023-05-21T13:05:36.524Z,53.40
2023-05-21T13:08:05.528Z,52.70
2023-05-21T13:10:37.613Z,53.30
2023-05-21T13:13:07.730Z,51.50
2023-05-21T13:15:36.376Z,51.30
2023-05-21T13:18:05.141Z,52.50
2023-05-21T13:20:33.547Z,51.80
2023-05-21T13:23:05.663Z,48.10
2023-05-21T13:25:35.344Z,49.60
2023-05-21T13:28:06.275Z,48.80
2023-05-21T13:30:36.531Z,49.40
2023-05-21T13:33:07.198Z,48.80
2023-05-21T13:35:35.563Z,49.10
2023-05-21T13:38:04.506Z,49.30
2023-05-21T13:40:35.455Z,48.30
2023-05-21T13:43:05.618Z,48.10
2023-05-21T13:45:35.336Z,49.70
2023-05-21T13:48:06.047Z,51.40
2023-05-21T13:50:35.641Z,50.00
2023-05-21T13:53:04.546Z,52.10
2023-05-21T13:55:32.913Z,50.30
2023-05-21T13:58:01.191Z,50.00
2023-05-21T14:00:29.680Z,49.80
2023-05-21T14:02:59.509Z,48.80
2023-05-21T14:05:30.543Z,50.40
2023-05-21T14:07:59.424Z,48.30
2023-05-21T14:10:28.208Z,47.30
2023-05-21T14:13:01.696Z,45.60
2023-05-21T14:15:40.058Z,46.00
2023-05-21T14:18:12.260Z,48.50
2023-05-21T14:20:41.137Z,48.30
2023-05-21T14:23:11.521Z,48.80
2023-05-21T14:25:42.349Z,47.60
2023-05-21T14:28:10.605Z,47.60
2023-05-21T14:30:39.054Z,48.60
2023-05-21T14:33:07.378Z,47.10
2023-05-21T14:35:37.584Z,47.50
2023-05-21T14:38:06.096Z,48.10
2023-05-21T14:40:34.894Z,49.90
2023-05-21T14:43:03.943Z,51.70
2023-05-21T14:45:36.280Z,51.20
2023-05-21T14:48:08.440Z,51.10
2023-05-21T14:50:38.910Z,50.70
2023-05-21T14:53:07.711Z,51.00
2023-05-21T14:55:37.377Z,51.00
2023-05-21T14:58:06.294Z,50.60
2023-05-21T15:00:36.211Z,49.40
2023-05-21T15:03:05.758Z,49.70
2023-05-21T15:05:34.595Z,52.10
2023-05-21T15:08:05.985Z,52.80
2023-05-21T15:10:34.346Z,52.80
2023-05-21T15:13:02.758Z,52.70
2023-05-21T15:15:31.413Z,52.20
2023-05-21T15:20:55.763Z,53.20
2023-05-21T15:23:25.798Z,53.50
2023-05-21T15:25:54.041Z,54.40
2023-05-21T15:28:23.231Z,54.00
2023-05-21T15:30:51.534Z,54.30
2023-05-21T15:33:20.184Z,55.30
2023-05-21T15:35:50.563Z,55.00
2023-05-21T15:38:22.320Z,54.10
2023-05-21T15:40:52.475Z,54.30
2023-05-21T15:43:21.591Z,54.90
2023-05-21T15:45:49.992Z,54.40
2023-05-21T15:48:22.707Z,54.50
2023-05-21T15:50:51.361Z,55.80
2023-05-21T15:53:21.489Z,54.10
2023-05-21T15:55:51.825Z,54.10
2023-05-21T15:58:19.944Z,53.90
2023-05-21T16:00:48.293Z,54.10
2023-05-21T16:03:16.777Z,54.40
2023-05-21T16:05:45.636Z,54.20
2023-05-21T16:08:14.035Z,54.30
2023-05-21T16:10:42.380Z,54.30
2023-05-21T16:13:11.952Z,54.70
2023-05-21T16:15:42.528Z,55.30
2023-05-21T16:18:11.639Z,55.00
2023-05-21T16:20:40.841Z,55.10
2023-05-21T16:23:09.073Z,54.90
2023-05-21T16:25:38.145Z,55.60
2023-05-21T16:28:06.594Z,55.30
2023-05-21T16:30:36.630Z,55.90
2023-05-21T16:33:05.088Z,55.40
2023-05-21T16:35:33.949Z,55.10
2023-05-21T16:38:04.248Z,55.50
2023-05-21T16:40:33.261Z,55.80
2023-05-21T16:43:02.358Z,53.70
2023-05-21T16:45:39.896Z,53.60
2023-05-21T16:48:09.226Z,54.50
2023-05-21T16:50:37.797Z,54.30
2023-05-21T16:53:07.871Z,54.30
2023-05-21T16:55:38.291Z,54.80
2023-05-21T16:58:09.355Z,55.30
2023-05-21T17:00:39.161Z,55.70
2023-05-21T17:03:08.012Z,55.70
2023-05-21T17:05:36.531Z,55.50
2023-05-21T17:08:05.378Z,54.70
2023-05-21T17:10:34.364Z,55.00
2023-05-21T17:13:13.949Z,55.50
2023-05-21T17:15:52.307Z,56.30
2023-05-21T17:18:21.312Z,55.10
2023-05-21T17:20:49.666Z,55.10
2023-05-21T17:23:18.738Z,54.80
2023-05-21T17:25:47.027Z,55.70
2023-05-21T17:28:15.613Z,56.10
2023-05-21T17:30:43.898Z,56.60
2023-05-21T17:33:23.955Z,56.20
2023-05-21T17:35:57.062Z,56.90
2023-05-21T17:38:28.044Z,57.40
2023-05-21T17:40:58.722Z,58.00
2023-05-21T17:43:34.352Z,58.90
2023-05-21T17:46:05.049Z,59.00
2023-05-21T17:48:35.105Z,59.90
2023-05-21T17:51:03.480Z,60.10
2023-05-21T17:53:31.844Z,61.50
2023-05-21T17:56:00.281Z,63.00
2023-05-21T17:58:28.644Z,62.50
2023-05-21T18:00:57.198Z,64.00
2023-05-21T18:03:26.015Z,64.20
2023-05-21T18:05:55.732Z,64.90
2023-05-21T18:08:24.572Z,65.60
2023-05-21T18:10:53.680Z,66.50
2023-05-21T18:13:22.079Z,66.80
2023-05-21T18:15:51.210Z,67.80
2023-05-21T18:18:21.738Z,68.70
2023-05-21T18:21:04.453Z,68.90
2023-05-21T18:23:35.293Z,69.30
2023-05-21T18:26:09.032Z,70.00
2023-05-21T18:28:38.012Z,70.50
2023-05-21T18:31:06.587Z,71.10
2023-05-21T18:33:35.573Z,71.60
2023-05-21T18:36:04.198Z,72.10
2023-05-21T18:38:37.258Z,73.00
2023-05-21T18:41:09.853Z,73.20
2023-05-21T18:43:38.614Z,74.60
2023-05-21T18:46:07.818Z,74.10
2023-05-21T18:48:37.973Z,74.70
2023-05-21T18:51:09.833Z,76.60
2023-05-21T18:53:41.448Z,76.30
2023-05-21T18:56:10.249Z,76.40
2023-05-21T18:58:38.651Z,77.00
2023-05-21T19:01:07.660Z,77.60
2023-05-21T19:03:42.402Z,78.30
2023-05-21T19:06:11.126Z,78.80
2023-05-21T19:08:44.690Z,79.30
2023-05-21T19:11:17.503Z,79.80
2023-05-21T19:13:48.063Z,80.30
2023-05-21T19:16:20.370Z,81.00
2023-05-21T19:18:53.937Z,81.70
2023-05-21T19:21:26.279Z,82.10
2023-05-21T19:24:01.054Z,82.90
2023-05-21T19:26:31.126Z,83.30
2023-05-21T19:28:59.311Z,83.60
2023-05-21T19:31:27.878Z,84.40
2023-05-21T19:33:58.453Z,85.30
2023-05-21T19:36:30.806Z,85.60
2023-05-21T19:39:09.097Z,86.00
2023-05-21T19:41:38.083Z,86.50
2023-05-21T19:44:06.529Z,86.70
2023-05-21T19:46:34.804Z,87.30
2023-05-21T19:49:03.019Z,88.20
2023-05-21T19:51:31.543Z,89.00
2023-05-21T19:53:59.751Z,89.10
2023-05-21T19:56:29.335Z,89.50
2023-05-21T19:58:57.685Z,90.10
2023-05-21T20:01:26.148Z,90.10
2023-05-21T20:03:54.990Z,90.20
2023-05-21T20:06:23.268Z,90.40
2023-05-21T20:08:52.062Z,90.50
2023-05-21T20:11:21.123Z,90.80
2023-05-21T20:13:53.397Z,91.00
2023-05-21T20:16:23.151Z,91.10
2023-05-21T20:18:57.204Z,91.40
2023-05-21T20:21:25.922Z,91.50
2023-05-21T20:23:54.803Z,91.90
2023-05-21T20:26:23.298Z,91.90
2023-05-21T20:28:53.175Z,92.10
2023-05-21T20:31:21.659Z,92.40
2023-05-21T20:33:54.039Z,92.60
2023-05-21T20:36:23.733Z,92.70
2023-05-21T20:38:54.355Z,92.90
2023-05-21T20:41:25.368Z,92.90
2023-05-21T20:43:56.970Z,93.00
2023-05-21T20:46:25.741Z,93.10
2023-05-21T20:48:54.048Z,93.10
2023-05-21T20:51:23.031Z,93.10
2023-05-21T20:53:51.567Z,93.10
2023-05-21T20:56:29.879Z,93.20
2023-05-21T20:59:11.846Z,93.20
2023-05-21T21:01:41.427Z,93.30
2023-05-21T21:04:10.434Z,93.20
2023-05-21T21:06:40.254Z,93.30
2023-05-21T21:09:09.417Z,93.30
2023-05-21T21:11:38.142Z,93.30
2023-05-21T21:14:07.670Z,93.40
2023-05-21T21:16:38.012Z,93.60
2023-05-21T21:19:06.536Z,93.70
2023-05-21T21:21:35.977Z,93.90
2023-05-21T21:24:04.864Z,94.30
2023-05-21T21:26:33.112Z,94.50
2023-05-21T21:29:01.817Z,94.50
2023-05-21T21:31:30.764Z,94.70
2023-05-21T21:34:00.499Z,94.90
2023-05-21T21:36:29.424Z,95.30
2023-05-21T21:38:57.916Z,95.60
2023-05-21T21:41:26.406Z,95.70
2023-05-21T21:43:54.971Z,95.80
2023-05-21T21:46:23.656Z,96.20
2023-05-21T21:48:51.988Z,96.10
2023-05-21T21:51:23.580Z,96.10
2023-05-21T21:53:52.050Z,96.20
2023-05-21T21:56:21.011Z,96.40
2023-05-21T21:58:49.363Z,96.30
2023-05-21T22:01:18.293Z,96.50
2023-05-21T22:03:46.562Z,96.80
2023-05-21T22:06:15.034Z,96.70
2023-05-21T22:08:45.002Z,96.90
2023-05-21T22:11:13.388Z,97.00
2023-05-21T22:13:42.596Z,97.20
2023-05-21T22:16:11.930Z,97.40
2023-05-21T22:18:42.117Z,97.80
2023-05-21T22:21:10.987Z,97.70
2023-05-21T22:23:39.919Z,97.90
2023-05-21T22:26:10.656Z,97.80
2023-05-21T22:28:39.408Z,97.80
2023-05-21T22:31:08.596Z,98.00
2023-05-21T22:33:37.824Z,98.10
2023-05-21T22:36:06.861Z,98.40
2023-05-21T22:38:35.500Z,98.50
2023-05-21T22:41:03.901Z,98.70
2023-05-21T22:43:35.416Z,98.90
2023-05-21T22:46:03.873Z,99.10
2023-05-21T22:48:32.184Z,99.20
2023-05-21T22:51:02.091Z,99.30
2023-05-21T22:53:32.058Z,99.40
2023-05-21T22:56:00.852Z,99.60
2023-05-21T22:58:29.557Z,99.50
2023-05-21T23:00:59.360Z,99.40
2023-05-21T23:03:28.478Z,99.60
2023-05-21T23:05:57.436Z,99.90
2023-05-21T23:08:25.795Z,99.90
2023-05-21T23:10:54.356Z,99.90
2023-05-21T23:13:22.652Z,99.90
2023-05-21T23:15:52.351Z,99.90
2023-05-21T23:18:22.015Z,99.90
2023-05-21T23:20:51.007Z,99.90
2023-05-21T23:23:19.493Z,99.90
2023-05-21T23:25:48.834Z,99.90
2023-05-21T23:28:17.310Z,99.90
2023-05-21T23:30:46.376Z,99.90
2023-05-21T23:33:15.119Z,99.90
2023-05-21T23:35:45.006Z,99.90
2023-05-21T23:38:14.084Z,99.90
2023-05-21T23:40:43.369Z,99.90
2023-05-21T23:43:12.399Z,99.90
2023-05-21T23:45:41.176Z,99.90
2023-05-21T23:48:09.853Z,99.90
2023-05-21T23:50:38.331Z,99.90
2023-05-21T23:53:08.375Z,99.90
2023-05-21T23:55:37.232Z,99.90
2023-05-21T23:58:05.513Z,99.90
